createdAt,value
2018-12-12T00:02:22.439Z,11.15
2018-12-12T00:04:56.048Z,8.90
2018-12-12T00:07:44.290Z,11.88
2018-12-12T00:10:19.425Z,11.95
2018-12-12T00:12:47.740Z,15.68
2018-12-12T00:15:16.668Z,13.78
2018-12-12T00:17:44.325Z,13.32
2018-12-12T00:22:44.182Z,14.73
2018-12-12T00:25:11.493Z,8.35
2018-12-12T00:27:38.902Z,15.40
2018-12-12T00:30:06.473Z,9.75
2018-12-12T00:32:34.016Z,13.25
2018-12-12T00:35:01.535Z,11.08
2018-12-12T00:37:31.322Z,13.03
2018-12-12T00:39:58.665Z,10.23
2018-12-12T00:42:26.227Z,18.20
2018-12-12T00:44:53.538Z,12.85
2018-12-12T00:47:20.906Z,11.95
2018-12-12T00:49:48.374Z,12.98
2018-12-12T00:52:20.783Z,12.47
2018-12-12T00:54:48.579Z,12.88
2018-12-12T00:57:16.158Z,9.78
2018-12-12T00:59:43.514Z,20.97
2018-12-12T01:02:11.129Z,17.48
2018-12-12T01:04:39.833Z,15.80
2018-12-12T01:07:07.816Z,21.73
2018-12-12T01:09:35.085Z,16.32
2018-12-12T01:12:08.377Z,13.45
2018-12-12T01:14:35.784Z,14.63
2018-12-12T01:17:03.303Z,10.93
2018-12-12T01:19:34.390Z,12.03
2018-12-12T01:22:01.890Z,12.37
2018-12-12T01:24:29.155Z,14.50
2018-12-12T01:26:57.337Z,14.63
2018-12-12T01:29:24.658Z,10.85
2018-12-12T01:31:58.877Z,10.15
2018-12-12T01:34:26.360Z,13.48
2018-12-12T01:36:54.098Z,14.25
2018-12-12T01:39:21.570Z,12.23
2018-12-12T01:41:49.012Z,11.85
2018-12-12T01:44:22.076Z,16.45
2018-12-12T01:46:49.510Z,10.58
2018-12-12T01:49:16.722Z,11.78
2018-12-12T01:51:44.029Z,13.10
2018-12-12T01:54:11.308Z,14.47
2018-12-12T01:56:38.643Z,13.43
2018-12-12T01:59:09.637Z,8.48
2018-12-12T02:01:37.185Z,15.28
2018-12-12T02:04:04.541Z,15.13
2018-12-12T02:06:31.757Z,15.40
2018-12-12T02:08:58.990Z,13.83
2018-12-12T02:11:26.246Z,10.90
2018-12-12T02:13:57.956Z,9.20
2018-12-12T02:16:25.411Z,14.18
2018-12-12T02:18:53.198Z,15.15
2018-12-12T02:21:20.608Z,12.00
2018-12-12T02:23:47.940Z,12.93
2018-12-12T02:26:15.194Z,13.70
2018-12-12T02:28:44.594Z,11.73
2018-12-12T02:31:12.557Z,12.45
2018-12-12T02:33:39.838Z,17.77
2018-12-12T02:36:07.095Z,13.50
2018-12-12T02:38:34.324Z,13.68
2018-12-12T02:41:06.942Z,13.30
2018-12-12T02:43:34.317Z,14.55
2018-12-12T02:46:02.022Z,13.80
2018-12-12T02:48:29.295Z,14.20
2018-12-12T02:50:56.587Z,12.90
2018-12-12T02:53:23.841Z,19.32
2018-12-12T02:55:55.815Z,15.50
2018-12-12T02:58:23.185Z,13.78
2018-12-12T03:00:50.514Z,23.85
2018-12-12T03:03:17.876Z,12.75
2018-12-12T03:05:45.207Z,14.85
2018-12-12T03:08:12.462Z,15.55
2018-12-12T03:10:43.034Z,10.82
2018-12-12T03:13:10.355Z,15.15
2018-12-12T03:15:37.642Z,15.95
2018-12-12T03:18:05.042Z,13.45
2018-12-12T03:20:32.272Z,16.00
2018-12-12T03:22:59.573Z,14.83
2018-12-12T03:25:30.393Z,15.20
2018-12-12T03:27:57.709Z,14.25
2018-12-12T03:30:25.092Z,17.17
2018-12-12T03:32:52.416Z,16.20
2018-12-12T03:35:19.704Z,11.30
2018-12-12T03:37:47.039Z,14.30
2018-12-12T03:40:18.749Z,11.08
2018-12-12T03:42:46.649Z,16.05
2018-12-12T03:45:14.240Z,15.98
2018-12-12T03:47:41.561Z,12.28
2018-12-12T03:50:09.061Z,14.85
2018-12-12T03:52:36.386Z,10.50
2018-12-12T03:55:05.643Z,11.45
2018-12-12T03:57:32.947Z,16.55
2018-12-12T04:00:01.613Z,13.38
2018-12-12T04:02:29.992Z,13.05
2018-12-12T04:04:58.477Z,14.00
2018-12-12T04:07:30.558Z,11.20
2018-12-12T04:09:58.010Z,12.55
2018-12-12T04:12:25.681Z,10.93
2018-12-12T04:14:53.069Z,14.90
2018-12-12T04:17:20.391Z,20.77
2018-12-12T04:19:48.808Z,15.03
2018-12-12T04:22:18.599Z,11.45
2018-12-12T04:24:46.181Z,17.25
2018-12-12T04:27:13.554Z,11.55
2018-12-12T04:29:41.970Z,11.83
2018-12-12T04:32:10.429Z,18.37
2018-12-12T04:34:45.675Z,10.43
2018-12-12T04:37:13.083Z,13.65
2018-12-12T04:39:40.386Z,18.70
2018-12-12T04:42:07.882Z,18.52
2018-12-12T04:44:35.144Z,17.32
2018-12-12T04:47:02.463Z,17.42
2018-12-12T04:49:30.170Z,14.45
2018-12-12T04:51:58.486Z,23.07
2018-12-12T04:54:26.024Z,15.70
2018-12-12T04:56:53.504Z,18.62
2018-12-12T04:59:22.516Z,14.47
2018-12-12T05:01:51.053Z,16.75
2018-12-12T05:04:26.051Z,14.33
2018-12-12T05:06:53.878Z,14.65
2018-12-12T05:09:21.394Z,15.40
2018-12-12T05:11:48.642Z,15.50
2018-12-12T05:14:15.908Z,15.25
2018-12-12T05:16:47.962Z,19.80
2018-12-12T05:19:15.230Z,17.32
2018-12-12T05:21:42.601Z,18.98
2018-12-12T05:24:10.205Z,15.70
2018-12-12T05:26:37.483Z,17.27
2018-12-12T05:31:38.104Z,17.73
2018-12-12T05:34:05.653Z,17.15
2018-12-12T05:36:32.950Z,13.08
2018-12-12T05:39:00.565Z,16.12
2018-12-12T05:41:28.001Z,17.23
2018-12-12T05:43:58.294Z,15.40
2018-12-12T05:46:25.888Z,14.63
2018-12-12T05:48:53.186Z,13.38
2018-12-12T05:51:20.576Z,15.05
2018-12-12T05:53:47.870Z,14.65
2018-12-12T05:58:48.646Z,13.90
2018-12-12T06:01:15.948Z,15.98
2018-12-12T06:03:43.253Z,13.05
2018-12-12T06:06:10.535Z,16.80
2018-12-12T06:08:39.037Z,17.52
2018-12-12T06:11:07.966Z,18.17
2018-12-12T06:13:35.264Z,13.35
2018-12-12T06:16:03.796Z,14.68
2018-12-12T06:18:32.243Z,18.10
2018-12-12T06:21:02.713Z,21.60
2018-12-12T06:23:41.432Z,19.65
2018-12-12T06:26:08.822Z,16.25
2018-12-12T06:28:36.256Z,18.92
2018-12-12T06:31:03.769Z,18.30
2018-12-12T06:33:33.608Z,20.82
2018-12-12T06:36:01.125Z,17.60
2018-12-12T06:38:28.510Z,16.60
2018-12-12T06:40:56.541Z,18.98
2018-12-12T06:43:23.933Z,16.48
2018-12-12T06:45:51.221Z,15.88
2018-12-12T06:48:18.576Z,14.47
2018-12-12T06:50:50.733Z,15.50
2018-12-12T06:53:20.590Z,16.12
2018-12-12T06:55:48.117Z,15.43
2018-12-12T06:58:15.413Z,17.67
2018-12-12T07:00:42.877Z,15.68
2018-12-12T07:03:13.781Z,17.25
2018-12-12T07:05:41.742Z,25.57
2018-12-12T07:08:09.162Z,21.27
2018-12-12T07:10:36.617Z,22.90
2018-12-12T07:13:03.906Z,23.73
2018-12-12T07:15:35.833Z,24.02
2018-12-12T07:18:03.666Z,18.98
2018-12-12T07:20:30.929Z,20.57
2018-12-12T07:22:58.205Z,20.68
2018-12-12T07:25:25.633Z,25.08
2018-12-12T07:27:52.953Z,22.58
2018-12-12T07:30:22.686Z,25.27
2018-12-12T07:32:50.001Z,24.27
2018-12-12T07:35:17.304Z,16.37
2018-12-12T07:37:44.901Z,18.95
2018-12-12T07:40:12.230Z,18.10
2018-12-12T07:45:11.854Z,20.10
2018-12-12T07:47:39.197Z,23.30
2018-12-12T07:50:06.756Z,21.55
2018-12-12T07:52:34.074Z,19.07
2018-12-12T07:55:01.531Z,19.35
2018-12-12T08:00:11.469Z,28.05
2018-12-12T08:02:38.772Z,17.20
2018-12-12T08:05:11.457Z,20.43
2018-12-12T08:07:38.801Z,26.70
2018-12-12T08:10:06.426Z,22.67
2018-12-12T08:12:33.742Z,20.77
2018-12-12T08:15:01.162Z,26.15
2018-12-12T08:17:34.830Z,23.27
2018-12-12T08:20:02.408Z,24.02
2018-12-12T08:22:29.828Z,25.80
2018-12-12T08:24:57.142Z,23.22
2018-12-12T08:27:24.538Z,21.20
2018-12-12T08:29:51.816Z,22.13
2018-12-12T08:32:22.960Z,23.65
2018-12-12T08:34:50.394Z,24.02
2018-12-12T08:37:17.877Z,27.10
2018-12-12T08:39:45.189Z,23.27
2018-12-12T08:42:12.497Z,30.52
2018-12-12T08:44:45.847Z,23.02
2018-12-12T08:47:13.173Z,26.87
2018-12-12T08:49:40.482Z,20.32
2018-12-12T08:52:07.800Z,20.40
2018-12-12T08:54:35.089Z,24.63
2018-12-12T08:57:02.993Z,25.68
2018-12-12T08:59:34.286Z,24.87
2018-12-12T09:02:01.717Z,25.30
2018-12-12T09:04:29.017Z,23.18
2018-12-12T09:06:56.338Z,21.73
2018-12-12T09:09:23.726Z,21.27
2018-12-12T09:11:51.158Z,21.42
2018-12-12T09:14:21.064Z,27.32
2018-12-12T09:16:48.394Z,20.05
2018-12-12T09:19:15.711Z,24.30
2018-12-12T09:21:43.018Z,22.82
2018-12-12T09:24:10.326Z,22.45
2018-12-12T09:26:37.949Z,21.45
2018-12-12T09:29:05.246Z,25.60
2018-12-12T09:31:34.780Z,19.25
2018-12-12T09:34:02.173Z,26.35
2018-12-12T09:36:29.493Z,20.23
2018-12-12T09:38:56.765Z,20.12
2018-12-12T09:41:24.090Z,22.62
2018-12-12T09:43:57.674Z,26.95
2018-12-12T09:46:25.005Z,19.67
2018-12-12T09:48:52.510Z,20.45
2018-12-12T09:51:19.952Z,18.27
2018-12-12T09:53:47.218Z,20.32
2018-12-12T09:56:14.485Z,24.35
2018-12-12T09:58:42.890Z,22.98
2018-12-12T10:01:11.558Z,23.67
2018-12-12T10:03:39.983Z,16.67
2018-12-12T10:06:08.425Z,22.98
2018-12-12T10:08:38.557Z,18.52
2018-12-12T10:11:08.279Z,20.30
2018-12-12T10:13:35.577Z,15.43
2018-12-12T10:16:03.981Z,17.37
2018-12-12T10:18:32.431Z,14.35
2018-12-12T10:21:00.849Z,18.57
2018-12-12T10:23:33.777Z,18.57
2018-12-12T10:26:01.322Z,18.85
2018-12-12T10:28:28.653Z,18.60
2018-12-12T10:30:55.966Z,15.50
2018-12-12T10:33:23.333Z,18.82
2018-12-12T10:35:51.762Z,14.45
2018-12-12T10:38:21.510Z,17.32
2018-12-12T10:40:48.836Z,15.70
2018-12-12T10:43:16.232Z,15.23
2018-12-12T10:45:44.685Z,15.85
2018-12-12T10:48:13.347Z,15.55
2018-12-12T10:50:46.749Z,15.40
2018-12-12T10:53:14.105Z,17.62
2018-12-12T10:55:41.417Z,17.10
2018-12-12T10:58:08.725Z,15.95
2018-12-12T11:00:39.424Z,17.95
2018-12-12T11:03:20.161Z,16.52
2018-12-12T11:05:47.430Z,16.27
2018-12-12T11:08:14.729Z,16.93
2018-12-12T11:10:42.283Z,22.75
2018-12-12T11:13:09.577Z,20.35
2018-12-12T11:15:38.884Z,21.95
2018-12-12T11:18:06.205Z,30.20
2018-12-12T11:20:33.697Z,19.12
2018-12-12T11:23:01.219Z,22.65
2018-12-12T11:25:29.795Z,22.65
2018-12-12T11:27:58.280Z,19.70
2018-12-12T11:30:29.561Z,19.85
2018-12-12T11:32:56.874Z,21.65
2018-12-12T11:35:24.251Z,24.70
2018-12-12T11:37:51.579Z,19.37
2018-12-12T11:40:20.118Z,20.40
2018-12-12T11:42:54.507Z,19.50
2018-12-12T11:45:21.945Z,21.85
2018-12-12T11:47:49.295Z,22.05
2018-12-12T11:50:16.587Z,18.23
2018-12-12T11:52:43.849Z,18.60
2018-12-12T11:55:16.249Z,26.55
2018-12-12T11:57:43.697Z,22.20
2018-12-12T12:00:11.680Z,22.62
2018-12-12T12:02:38.991Z,19.00
2018-12-12T12:05:06.470Z,20.02
2018-12-12T12:07:33.810Z,16.65
2018-12-12T12:10:07.201Z,19.17
2018-12-12T12:12:34.881Z,17.12
2018-12-12T12:15:02.468Z,18.40
2018-12-12T12:17:29.867Z,19.82
2018-12-12T12:19:57.149Z,18.10
2018-12-12T12:22:28.644Z,17.80
2018-12-12T12:24:56.037Z,25.97
2018-12-12T12:27:23.357Z,15.15
2018-12-12T12:29:50.647Z,19.20
2018-12-12T12:32:19.045Z,22.65
2018-12-12T12:34:51.918Z,18.02
2018-12-12T12:37:19.269Z,19.85
2018-12-12T12:39:46.580Z,17.70
2018-12-12T12:42:13.903Z,15.78
2018-12-12T12:44:41.235Z,16.27
2018-12-12T12:47:08.599Z,19.62
2018-12-12T12:49:39.862Z,20.30
2018-12-12T12:52:07.286Z,16.82
2018-12-12T12:54:34.681Z,19.07
2018-12-12T12:57:02.122Z,19.05
2018-12-12T12:59:30.605Z,18.17
2018-12-12T13:02:04.170Z,16.30
2018-12-12T13:04:31.501Z,19.98
2018-12-12T13:06:58.889Z,18.62
2018-12-12T13:09:26.326Z,13.95
2018-12-12T13:11:53.795Z,15.13
2018-12-12T13:14:21.169Z,16.32
2018-12-12T13:16:51.146Z,14.53
2018-12-12T13:19:18.433Z,18.57
2018-12-12T13:21:46.879Z,15.30
2018-12-12T13:24:15.353Z,17.55
2018-12-12T13:26:43.996Z,16.55
2018-12-12T13:29:17.019Z,14.98
2018-12-12T13:31:44.362Z,17.35
2018-12-12T13:34:16.272Z,16.40
2018-12-12T13:36:41.004Z,16.17
2018-12-12T13:39:08.300Z,16.32
2018-12-12T13:41:41.497Z,19.20
2018-12-12T13:44:08.859Z,16.60
2018-12-12T13:46:36.809Z,15.18
2018-12-12T13:49:04.110Z,16.23
2018-12-12T13:51:31.830Z,10.10
2018-12-12T13:53:59.192Z,13.98
2018-12-12T13:56:28.048Z,11.95
2018-12-12T13:58:55.363Z,13.25
2018-12-12T14:01:22.682Z,14.00
2018-12-12T14:03:51.145Z,14.10
2018-12-12T14:06:19.709Z,15.65
2018-12-12T14:08:52.241Z,20.82
2018-12-12T14:11:19.847Z,17.70
2018-12-12T14:13:47.162Z,13.28
2018-12-12T14:16:14.550Z,13.85
2018-12-12T14:18:41.854Z,14.68
2018-12-12T14:21:15.686Z,15.32
2018-12-12T14:23:43.019Z,15.05
2018-12-12T14:26:10.398Z,17.15
2018-12-12T14:28:37.884Z,16.05
2018-12-12T14:31:05.293Z,19.05
2018-12-12T14:33:36.636Z,17.98
2018-12-12T14:36:04.152Z,21.23
2018-12-12T14:38:31.442Z,29.07
2018-12-12T14:40:58.845Z,24.45
2018-12-12T14:43:27.409Z,18.48
2018-12-12T14:46:00.973Z,14.95
2018-12-12T14:48:30.392Z,19.00
2018-12-12T14:50:57.825Z,19.30
2018-12-12T14:53:25.103Z,21.05
2018-12-12T14:55:52.470Z,17.82
2018-12-12T14:58:24.369Z,15.50
2018-12-12T15:00:51.645Z,15.35
2018-12-12T15:03:19.081Z,18.70
2018-12-12T15:05:46.437Z,16.70
2018-12-12T15:08:13.742Z,15.15
2018-12-12T15:10:44.081Z,18.90
2018-12-12T15:13:13.125Z,14.93
2018-12-12T15:15:40.502Z,16.45
2018-12-12T15:18:07.829Z,18.45
2018-12-12T15:20:35.151Z,22.30
2018-12-12T15:23:03.665Z,16.70
2018-12-12T15:25:35.257Z,16.85
2018-12-12T15:28:02.681Z,16.00
2018-12-12T15:30:29.983Z,15.38
2018-12-12T15:32:57.288Z,15.45
2018-12-12T15:35:25.573Z,16.55
2018-12-12T15:37:57.378Z,19.73
2018-12-12T15:40:24.670Z,19.32
2018-12-12T15:42:51.993Z,18.23
2018-12-12T15:45:19.428Z,19.50
2018-12-12T15:47:46.730Z,17.65
2018-12-12T15:50:20.335Z,20.88
2018-12-12T15:52:47.631Z,16.85
2018-12-12T15:55:15.018Z,18.52
2018-12-12T15:57:42.345Z,16.40
2018-12-12T16:00:10.998Z,21.00
2018-12-12T16:02:38.737Z,18.65
2018-12-12T16:05:12.235Z,18.32
2018-12-12T16:07:39.780Z,15.80
2018-12-12T16:10:07.616Z,14.98
2018-12-12T16:12:35.170Z,15.63
2018-12-12T16:15:03.096Z,19.75
2018-12-12T16:17:37.123Z,18.85
2018-12-12T16:20:05.464Z,17.15
2018-12-12T16:22:32.801Z,12.73
2018-12-12T16:25:00.541Z,14.23
2018-12-12T16:27:28.133Z,15.23
2018-12-12T16:30:01.469Z,17.85
2018-12-12T16:32:28.897Z,16.80
2018-12-12T16:34:56.190Z,15.80
2018-12-12T16:37:23.482Z,16.90
2018-12-12T16:39:50.818Z,19.98
2018-12-12T16:42:23.370Z,22.35
2018-12-12T16:44:51.107Z,17.17
2018-12-12T16:47:18.445Z,16.82
2018-12-12T16:49:45.775Z,17.35
2018-12-12T16:52:13.093Z,17.70
2018-12-12T16:54:40.413Z,22.40
2018-12-12T16:57:07.849Z,24.70
2018-12-12T16:59:36.954Z,17.75
2018-12-12T17:02:04.288Z,19.27
2018-12-12T17:04:31.585Z,16.45
2018-12-12T17:06:58.900Z,17.48
2018-12-12T17:09:27.270Z,17.32
2018-12-12T17:11:59.799Z,16.57
2018-12-12T17:14:27.178Z,16.90
2018-12-12T17:16:54.587Z,15.93
2018-12-12T17:19:23.070Z,18.48
2018-12-12T17:21:51.543Z,15.63
2018-12-12T17:24:25.739Z,14.47
2018-12-12T17:26:53.085Z,17.90
2018-12-12T17:29:20.731Z,17.05
2018-12-12T17:31:48.172Z,15.58
2018-12-12T17:34:15.762Z,18.07
2018-12-12T17:36:49.109Z,15.20
2018-12-12T17:39:16.515Z,16.90
2018-12-12T17:41:43.904Z,18.95
2018-12-12T17:44:11.209Z,18.32
2018-12-12T17:46:38.524Z,17.30
2018-12-12T17:49:05.980Z,20.57
2018-12-12T17:51:35.768Z,18.80
2018-12-12T17:54:03.424Z,21.10
2018-12-12T17:56:30.760Z,20.08
2018-12-12T17:58:59.145Z,18.20
2018-12-12T18:01:27.609Z,18.65
2018-12-12T18:03:59.703Z,18.40
2018-12-12T18:06:27.006Z,18.35
2018-12-12T18:08:54.349Z,16.30
2018-12-12T18:11:22.006Z,18.42
2018-12-12T18:13:50.401Z,17.87
2018-12-12T18:16:24.221Z,15.30
2018-12-12T18:18:51.452Z,17.25
2018-12-12T18:21:18.981Z,18.98
2018-12-12T18:23:46.421Z,14.38
2018-12-12T18:26:13.825Z,14.20
2018-12-12T18:28:41.154Z,14.20
2018-12-12T18:31:10.857Z,15.93
2018-12-12T18:33:38.167Z,16.45
2018-12-12T18:36:05.510Z,15.28
2018-12-12T18:38:34.073Z,15.90
2018-12-12T18:41:02.720Z,12.47
2018-12-12T18:43:33.548Z,14.43
2018-12-12T18:46:02.242Z,15.40
2018-12-12T18:48:29.545Z,17.67
2018-12-12T18:50:56.861Z,15.25
2018-12-12T18:53:25.157Z,12.80
2018-12-12T18:55:52.433Z,17.30
2018-12-12T18:58:20.872Z,15.38
2018-12-12T19:00:51.087Z,14.93
2018-12-12T19:03:18.366Z,11.88
2018-12-12T19:05:46.773Z,17.67
2018-12-12T19:08:15.280Z,13.62
2018-12-12T19:10:43.689Z,13.15
2018-12-12T19:13:17.277Z,13.83
2018-12-12T19:15:44.576Z,15.23
2018-12-12T19:18:11.871Z,14.15
2018-12-12T19:20:39.169Z,13.08
2018-12-12T19:23:06.513Z,14.30
2018-12-12T19:25:34.830Z,15.43
2018-12-12T19:28:08.365Z,13.62
2018-12-12T19:30:36.013Z,13.90
2018-12-12T19:33:03.691Z,14.23
2018-12-12T19:35:34.785Z,13.25
2018-12-12T19:38:00.443Z,11.93
2018-12-12T19:40:27.930Z,12.95
2018-12-12T19:42:56.999Z,13.70
2018-12-12T19:45:24.454Z,13.10
2018-12-12T19:47:52.026Z,13.53
2018-12-12T19:50:19.389Z,14.70
2018-12-12T19:52:46.686Z,13.88
2018-12-12T19:55:19.681Z,14.85
2018-12-12T19:57:47.076Z,13.32
2018-12-12T20:00:14.500Z,14.15
2018-12-12T20:02:43.006Z,14.43
2018-12-12T20:05:11.650Z,15.40
2018-12-12T20:07:46.843Z,17.27
2018-12-12T20:10:14.365Z,15.32
2018-12-12T20:12:41.671Z,15.08
2018-12-12T20:15:13.709Z,14.83
2018-12-12T20:17:41.038Z,13.88
2018-12-12T20:20:13.529Z,14.65
2018-12-12T20:22:40.889Z,15.60
2018-12-12T20:25:08.311Z,15.98
2018-12-12T20:27:35.881Z,16.50
2018-12-12T20:30:03.537Z,17.77
2018-12-12T20:32:35.793Z,16.23
2018-12-12T20:35:03.610Z,15.32
2018-12-12T20:37:30.957Z,15.72
2018-12-12T20:39:58.257Z,14.58
2018-12-12T20:42:26.098Z,15.20
2018-12-12T20:44:53.581Z,15.48
2018-12-12T20:47:24.992Z,15.78
2018-12-12T20:49:52.289Z,16.45
2018-12-12T20:52:19.718Z,17.20
2018-12-12T20:54:47.001Z,16.25
2018-12-12T20:57:14.356Z,16.90
2018-12-12T21:02:14.392Z,15.18
2018-12-12T21:04:41.944Z,16.77
2018-12-12T21:07:09.311Z,15.48
2018-12-12T21:09:36.810Z,14.87
2018-12-12T21:12:07.255Z,16.40
2018-12-12T21:14:41.005Z,17.90
2018-12-12T21:17:08.358Z,15.68
2018-12-12T21:19:35.634Z,17.92
2018-12-12T21:22:03.329Z,16.17
2018-12-12T21:24:30.606Z,19.67
2018-12-12T21:26:57.894Z,16.85
2018-12-12T21:29:25.230Z,15.43
2018-12-12T21:31:52.894Z,23.22
2018-12-12T21:34:26.551Z,16.67
2018-12-12T21:36:53.917Z,20.30
2018-12-12T21:39:21.229Z,19.00
2018-12-12T21:41:48.592Z,15.38
2018-12-12T21:44:17.294Z,17.77
2018-12-12T21:46:44.588Z,17.75
2018-12-12T21:49:11.922Z,16.70
2018-12-12T21:51:40.156Z,14.38
2018-12-12T21:54:07.630Z,19.98
2018-12-12T21:56:35.031Z,17.35
2018-12-12T21:59:02.619Z,15.68
2018-12-12T22:01:30.401Z,15.63
2018-12-12T22:03:58.885Z,18.00
2018-12-12T22:06:28.609Z,17.35
2018-12-12T22:08:55.903Z,18.00
2018-12-12T22:11:24.302Z,16.62
2018-12-12T22:13:52.761Z,17.55
2018-12-12T22:16:21.205Z,16.40
2018-12-12T22:18:49.713Z,15.40
2018-12-12T22:21:18.130Z,15.80
2018-12-12T22:23:46.645Z,16.82
2018-12-12T22:26:15.313Z,15.25
2018-12-12T22:28:43.746Z,15.18
2018-12-12T22:31:12.221Z,17.95
2018-12-12T22:33:40.629Z,16.20
2018-12-12T22:36:14.094Z,14.93
2018-12-12T22:38:39.774Z,14.30
2018-12-12T22:41:08.248Z,16.00
2018-12-12T22:43:36.864Z,15.03
2018-12-12T22:46:05.213Z,19.23
2018-12-12T22:48:33.537Z,15.72
2018-12-12T22:51:02.061Z,18.45
2018-12-12T22:53:30.649Z,15.88
2018-12-12T22:55:59.058Z,19.60
2018-12-12T22:58:27.491Z,17.55
2018-12-12T23:01:01.519Z,16.23
2018-12-12T23:03:29.933Z,17.60
2018-12-12T23:05:58.485Z,13.13
2018-12-12T23:08:26.938Z,15.05
2018-12-12T23:10:55.273Z,17.42
2018-12-12T23:13:23.792Z,16.97
2018-12-12T23:15:52.488Z,16.97
2018-12-12T23:18:20.914Z,18.12
2018-12-12T23:20:48.242Z,16.52
2018-12-12T23:23:16.724Z,17.02
2018-12-12T23:25:45.703Z,16.93
2018-12-12T23:28:14.158Z,17.40
2018-12-12T23:30:42.651Z,17.10
2018-12-12T23:33:11.977Z,17.92
2018-12-12T23:35:41.403Z,18.05
2018-12-12T23:38:09.956Z,17.67
2018-12-12T23:40:38.352Z,15.58
2018-12-12T23:43:07.026Z,16.70
2018-12-12T23:45:36.486Z,15.98
2018-12-12T23:48:04.134Z,15.98
2018-12-12T23:50:32.627Z,15.70
2018-12-12T23:53:01.052Z,16.45
2018-12-12T23:55:29.578Z,16.17
2018-12-12T23:57:58.068Z,16.27
